sensor_id;sensor_type;location;lat;lon;timestamp;temperature;humidity
67769;DHT22;54569;52.018;5.584;2023-11-19T00:02:08;13.50;99.90
67769;DHT22;54569;52.018;5.584;2023-11-19T00:04:37;13.50;99.90
67769;DHT22;54569;52.018;5.584;2023-11-19T00:07:05;13.60;99.90
67769;DHT22;54569;52.018;5.584;2023-11-19T00:09:32;13.60;99.90
67769;DHT22;54569;52.018;5.584;2023-11-19T00:11:58;13.60;99.90
67769;DHT22;54569;52.018;5.584;2023-11-19T00:14:26;13.60;99.90
67769;DHT22;54569;52.018;5.584;2023-11-19T00:16:52;13.60;99.90
67769;DHT22;54569;52.018;5.584;2023-11-19T00:19:19;13.60;99.90
67769;DHT22;54569;52.018;5.584;2023-11-19T00:21:45;13.60;99.90
67769;DHT22;54569;52.018;5.584;2023-11-19T00:24:11;13.60;99.90
67769;DHT22;54569;52.018;5.584;2023-11-19T00:26:38;13.60;99.90
67769;DHT22;54569;52.018;5.584;2023-11-19T00:29:04;13.60;99.90
67769;DHT22;54569;52.018;5.584;2023-11-19T00:31:30;13.60;99.90
67769;DHT22;54569;52.018;5.584;2023-11-19T00:33:57;13.60;99.90
67769;DHT22;54569;52.018;5.584;2023-11-19T00:36:23;13.60;99.90
67769;DHT22;54569;52.018;5.584;2023-11-19T00:38:49;13.60;99.90
67769;DHT22;54569;52.018;5.584;2023-11-19T00:41:15;13.60;99.90
67769;DHT22;54569;52.018;5.584;2023-11-19T00:43:44;13.60;99.90
67769;DHT22;54569;52.018;5.584;2023-11-19T00:46:10;13.50;99.90
67769;DHT22;54569;52.018;5.584;2023-11-19T00:48:41;13.60;99.90
67769;DHT22;54569;52.018;5.584;2023-11-19T00:51:07;13.50;99.90
67769;DHT22;54569;52.018;5.584;2023-11-19T00:53:33;13.50;99.90
67769;DHT22;54569;52.018;5.584;2023-11-19T00:56:00;13.50;99.90
67769;DHT22;54569;52.018;5.584;2023-11-19T00:58:26;13.50;99.90
67769;DHT22;54569;52.018;5.584;2023-11-19T01:00:52;13.50;99.90
67769;DHT22;54569;52.018;5.584;2023-11-19T01:03:18;13.50;99.90
67769;DHT22;54569;52.018;5.584;2023-11-19T01:05:43;13.50;99.90
67769;DHT22;54569;52.018;5.584;2023-11-19T01:08:10;13.50;99.90
67769;DHT22;54569;52.018;5.584;2023-11-19T01:10:39;13.50;99.90
67769;DHT22;54569;52.018;5.584;2023-11-19T01:13:05;13.50;99.90
67769;DHT22;54569;52.018;5.584;2023-11-19T01:15:34;13.50;99.90
67769;DHT22;54569;52.018;5.584;2023-11-19T01:18:03;13.50;99.90
67769;DHT22;54569;52.018;5.584;2023-11-19T01:20:31;13.50;99.90
67769;DHT22;54569;52.018;5.584;2023-11-19T01:22:59;13.50;99.90
67769;DHT22;54569;52.018;5.584;2023-11-19T01:25:25;13.50;99.90
67769;DHT22;54569;52.018;5.584;2023-11-19T01:27:50;13.50;99.90
67769;DHT22;54569;52.018;5.584;2023-11-19T01:30:16;13.50;99.90
67769;DHT22;54569;52.018;5.584;2023-11-19T01:32:42;13.50;99.90
67769;DHT22;54569;52.018;5.584;2023-11-19T01:35:08;13.50;99.90
67769;DHT22;54569;52.018;5.584;2023-11-19T01:37:34;13.50;99.90
67769;DHT22;54569;52.018;5.584;2023-11-19T01:40:03;13.60;99.90
67769;DHT22;54569;52.018;5.584;2023-11-19T01:42:40;13.60;99.90
67769;DHT22;54569;52.018;5.584;2023-11-19T01:45:07;13.50;99.90
67769;DHT22;54569;52.018;5.584;2023-11-19T01:47:34;13.50;99.90
67769;DHT22;54569;52.018;5.584;2023-11-19T01:50:01;13.60;99.90
67769;DHT22;54569;52.018;5.584;2023-11-19T01:52:33;13.50;99.90
67769;DHT22;54569;52.018;5.584;2023-11-19T01:55:00;13.50;99.90
67769;DHT22;54569;52.018;5.584;2023-11-19T01:57:26;13.50;99.90
67769;DHT22;54569;52.018;5.584;2023-11-19T01:59:52;13.50;99.90
67769;DHT22;54569;52.018;5.584;2023-11-19T02:02:19;13.50;99.90
67769;DHT22;54569;52.018;5.584;2023-11-19T02:04:49;13.50;99.90
67769;DHT22;54569;52.018;5.584;2023-11-19T02:07:15;13.50;99.90
67769;DHT22;54569;52.018;5.584;2023-11-19T02:09:43;13.50;99.90
67769;DHT22;54569;52.018;5.584;2023-11-19T02:12:10;13.50;99.90
67769;DHT22;54569;52.018;5.584;2023-11-19T02:14:38;13.40;99.90
67769;DHT22;54569;52.018;5.584;2023-11-19T02:17:05;13.40;99.90
67769;DHT22;54569;52.018;5.584;2023-11-19T02:19:30;13.40;99.90
67769;DHT22;54569;52.018;5.584;2023-11-19T02:21:56;13.30;99.90
67769;DHT22;54569;52.018;5.584;2023-11-19T02:24:22;13.30;99.90
67769;DHT22;54569;52.018;5.584;2023-11-19T02:29:25;13.30;99.90
67769;DHT22;54569;52.018;5.584;2023-11-19T02:31:51;13.20;99.90
67769;DHT22;54569;52.018;5.584;2023-11-19T02:34:17;13.30;99.90
67769;DHT22;54569;52.018;5.584;2023-11-19T02:36:42;13.20;99.90
67769;DHT22;54569;52.018;5.584;2023-11-19T02:39:08;13.20;99.90
67769;DHT22;54569;52.018;5.584;2023-11-19T02:41:37;13.20;99.90
67769;DHT22;54569;52.018;5.584;2023-11-19T02:44:06;13.20;99.90
67769;DHT22;54569;52.018;5.584;2023-11-19T02:46:32;13.20;99.90
67769;DHT22;54569;52.018;5.584;2023-11-19T02:48:58;13.20;99.90
67769;DHT22;54569;52.018;5.584;2023-11-19T02:51:24;13.20;99.90
67769;DHT22;54569;52.018;5.584;2023-11-19T02:53:49;13.10;99.90
67769;DHT22;54569;52.018;5.584;2023-11-19T02:56:15;13.10;99.90
67769;DHT22;54569;52.018;5.584;2023-11-19T02:58:45;13.10;99.90
67769;DHT22;54569;52.018;5.584;2023-11-19T03:01:12;13.10;99.90
67769;DHT22;54569;52.018;5.584;2023-11-19T03:03:49;13.00;99.90
67769;DHT22;54569;52.018;5.584;2023-11-19T03:06:20;13.00;99.90
67769;DHT22;54569;52.018;5.584;2023-11-19T03:08:47;12.90;99.90
67769;DHT22;54569;52.018;5.584;2023-11-19T03:11:13;12.80;99.90
67769;DHT22;54569;52.018;5.584;2023-11-19T03:13:39;12.80;99.90
67769;DHT22;54569;52.018;5.584;2023-11-19T03:16:05;12.80;99.90
67769;DHT22;54569;52.018;5.584;2023-11-19T03:18:31;12.70;99.90
67769;DHT22;54569;52.018;5.584;2023-11-19T03:20:57;12.70;99.90
67769;DHT22;54569;52.018;5.584;2023-11-19T03:23:25;12.70;99.90
67769;DHT22;54569;52.018;5.584;2023-11-19T03:25:54;12.70;99.90
67769;DHT22;54569;52.018;5.584;2023-11-19T03:28:21;12.70;99.90
67769;DHT22;54569;52.018;5.584;2023-11-19T03:30:46;12.70;99.90
67769;DHT22;54569;52.018;5.584;2023-11-19T03:33:12;12.60;99.90
67769;DHT22;54569;52.018;5.584;2023-11-19T03:35:38;12.60;99.90
67769;DHT22;54569;52.018;5.584;2023-11-19T03:38:05;12.60;99.90
67769;DHT22;54569;52.018;5.584;2023-11-19T03:40:30;12.50;99.90
67769;DHT22;54569;52.018;5.584;2023-11-19T03:42:56;12.50;99.90
67769;DHT22;54569;52.018;5.584;2023-11-19T03:45:25;12.50;99.90
67769;DHT22;54569;52.018;5.584;2023-11-19T03:47:51;12.40;99.90
67769;DHT22;54569;52.018;5.584;2023-11-19T03:50:17;12.40;99.90
67769;DHT22;54569;52.018;5.584;2023-11-19T03:52:49;12.30;99.90
67769;DHT22;54569;52.018;5.584;2023-11-19T03:55:14;12.30;99.90
67769;DHT22;54569;52.018;5.584;2023-11-19T03:57:40;12.20;99.90
67769;DHT22;54569;52.018;5.584;2023-11-19T04:00:06;12.20;99.90
67769;DHT22;54569;52.018;5.584;2023-11-19T04:02:38;12.20;99.90
67769;DHT22;54569;52.018;5.584;2023-11-19T04:05:04;12.20;99.90
67769;DHT22;54569;52.018;5.584;2023-11-19T04:07:30;12.10;99.90
67769;DHT22;54569;52.018;5.584;2023-11-19T04:09:57;12.10;99.90
67769;DHT22;54569;52.018;5.584;2023-11-19T04:12:22;12.10;99.90
67769;DHT22;54569;52.018;5.584;2023-11-19T04:14:48;12.10;99.90
67769;DHT22;54569;52.018;5.584;2023-11-19T04:17:14;12.00;99.90
67769;DHT22;54569;52.018;5.584;2023-11-19T04:19:39;12.00;99.90
67769;DHT22;54569;52.018;5.584;2023-11-19T04:22:09;12.00;99.90
67769;DHT22;54569;52.018;5.584;2023-11-19T04:24:38;12.00;99.90
67769;DHT22;54569;52.018;5.584;2023-11-19T04:27:06;12.00;99.90
67769;DHT22;54569;52.018;5.584;2023-11-19T04:29:32;11.90;99.90
67769;DHT22;54569;52.018;5.584;2023-11-19T04:31:58;11.90;99.90
67769;DHT22;54569;52.018;5.584;2023-11-19T04:34:24;11.90;99.90
67769;DHT22;54569;52.018;5.584;2023-11-19T04:36:50;11.90;99.90
67769;DHT22;54569;52.018;5.584;2023-11-19T04:39:15;11.90;99.90
67769;DHT22;54569;52.018;5.584;2023-11-19T04:41:51;11.90;99.90
67769;DHT22;54569;52.018;5.584;2023-11-19T04:44:20;11.90;99.90
67769;DHT22;54569;52.018;5.584;2023-11-19T04:46:46;11.90;99.90
67769;DHT22;54569;52.018;5.584;2023-11-19T04:49:13;11.80;99.90
67769;DHT22;54569;52.018;5.584;2023-11-19T04:51:44;11.90;99.90
67769;DHT22;54569;52.018;5.584;2023-11-19T04:54:12;11.80;99.90
67769;DHT22;54569;52.018;5.584;2023-11-19T04:56:38;11.80;99.90
67769;DHT22;54569;52.018;5.584;2023-11-19T04:59:05;11.80;99.90
67769;DHT22;54569;52.018;5.584;2023-11-19T05:01:34;11.80;99.90
67769;DHT22;54569;52.018;5.584;2023-11-19T05:04:03;11.80;99.90
67769;DHT22;54569;52.018;5.584;2023-11-19T05:06:30;11.80;99.90
67769;DHT22;54569;52.018;5.584;2023-11-19T05:08:58;11.80;99.90
67769;DHT22;54569;52.018;5.584;2023-11-19T05:11:26;11.80;99.90
67769;DHT22;54569;52.018;5.584;2023-11-19T05:13:54;11.80;99.90
67769;DHT22;54569;52.018;5.584;2023-11-19T05:16:19;11.80;99.90
67769;DHT22;54569;52.018;5.584;2023-11-19T05:18:46;11.80;99.90
67769;DHT22;54569;52.018;5.584;2023-11-19T05:21:12;11.90;99.90
67769;DHT22;54569;52.018;5.584;2023-11-19T05:23:38;11.90;99.90
67769;DHT22;54569;52.018;5.584;2023-11-19T05:26:05;11.90;99.90
67769;DHT22;54569;52.018;5.584;2023-11-19T05:28:30;11.90;99.90
67769;DHT22;54569;52.018;5.584;2023-11-19T05:30:56;11.90;99.90
67769;DHT22;54569;52.018;5.584;2023-11-19T05:33:22;11.90;99.90
67769;DHT22;54569;52.018;5.584;2023-11-19T05:35:47;11.90;99.90
67769;DHT22;54569;52.018;5.584;2023-11-19T05:38:13;11.80;99.90
67769;DHT22;54569;52.018;5.584;2023-11-19T05:40:40;11.80;99.90
67769;DHT22;54569;52.018;5.584;2023-11-19T05:43:06;11.90;99.90
67769;DHT22;54569;52.018;5.584;2023-11-19T05:45:32;11.90;99.90
67769;DHT22;54569;52.018;5.584;2023-11-19T05:47:58;11.90;99.90
67769;DHT22;54569;52.018;5.584;2023-11-19T05:50:23;11.90;99.90
67769;DHT22;54569;52.018;5.584;2023-11-19T05:52:49;11.90;99.90
67769;DHT22;54569;52.018;5.584;2023-11-19T05:55:15;11.90;99.90
67769;DHT22;54569;52.018;5.584;2023-11-19T05:57:41;11.90;99.90
67769;DHT22;54569;52.018;5.584;2023-11-19T06:00:07;11.90;99.90
67769;DHT22;54569;52.018;5.584;2023-11-19T06:02:37;11.90;99.90
67769;DHT22;54569;52.018;5.584;2023-11-19T06:05:05;11.90;99.90
67769;DHT22;54569;52.018;5.584;2023-11-19T06:07:34;11.90;99.90
67769;DHT22;54569;52.018;5.584;2023-11-19T06:10:02;11.90;99.90
67769;DHT22;54569;52.018;5.584;2023-11-19T06:12:33;11.90;99.90
67769;DHT22;54569;52.018;5.584;2023-11-19T06:15:00;11.90;99.90
67769;DHT22;54569;52.018;5.584;2023-11-19T06:17:25;11.90;99.90
67769;DHT22;54569;52.018;5.584;2023-11-19T06:19:51;11.90;99.90
67769;DHT22;54569;52.018;5.584;2023-11-19T06:22:17;11.80;99.90
67769;DHT22;54569;52.018;5.584;2023-11-19T06:24:43;11.80;99.90
67769;DHT22;54569;52.018;5.584;2023-11-19T06:27:08;11.80;99.90
67769;DHT22;54569;52.018;5.584;2023-11-19T06:29:34;11.80;99.90
67769;DHT22;54569;52.018;5.584;2023-11-19T06:32:00;11.70;99.90
67769;DHT22;54569;52.018;5.584;2023-11-19T06:34:26;11.70;99.90
67769;DHT22;54569;52.018;5.584;2023-11-19T06:36:51;11.70;99.90
67769;DHT22;54569;52.018;5.584;2023-11-19T06:39:18;11.70;99.90
67769;DHT22;54569;52.018;5.584;2023-11-19T06:41:47;11.70;99.90
67769;DHT22;54569;52.018;5.584;2023-11-19T06:44:13;11.70;99.90
67769;DHT22;54569;52.018;5.584;2023-11-19T06:46:39;11.70;99.90
67769;DHT22;54569;52.018;5.584;2023-11-19T06:49:05;11.70;99.90
67769;DHT22;54569;52.018;5.584;2023-11-19T06:51:30;11.70;99.90
67769;DHT22;54569;52.018;5.584;2023-11-19T06:53:56;11.70;99.90
67769;DHT22;54569;52.018;5.584;2023-11-19T06:56:23;11.70;99.90
67769;DHT22;54569;52.018;5.584;2023-11-19T06:58:50;11.70;99.90
67769;DHT22;54569;52.018;5.584;2023-11-19T07:01:16;11.70;99.90
67769;DHT22;54569;52.018;5.584;2023-11-19T07:03:47;11.70;99.90
67769;DHT22;54569;52.018;5.584;2023-11-19T07:06:12;11.70;99.90
67769;DHT22;54569;52.018;5.584;2023-11-19T07:08:41;11.70;99.90
67769;DHT22;54569;52.018;5.584;2023-11-19T07:11:07;11.70;99.90
67769;DHT22;54569;52.018;5.584;2023-11-19T07:13:36;11.80;99.90
67769;DHT22;54569;52.018;5.584;2023-11-19T07:16:02;11.80;99.90
67769;DHT22;54569;52.018;5.584;2023-11-19T07:18:29;11.80;99.90
67769;DHT22;54569;52.018;5.584;2023-11-19T07:20:54;11.80;99.90
67769;DHT22;54569;52.018;5.584;2023-11-19T07:23:20;11.80;99.90
67769;DHT22;54569;52.018;5.584;2023-11-19T07:25:47;11.90;99.90
67769;DHT22;54569;52.018;5.584;2023-11-19T07:28:13;11.90;99.90
67769;DHT22;54569;52.018;5.584;2023-11-19T07:30:38;11.90;99.90
67769;DHT22;54569;52.018;5.584;2023-11-19T07:33:04;11.90;99.90
67769;DHT22;54569;52.018;5.584;2023-11-19T07:35:31;11.90;99.90
67769;DHT22;54569;52.018;5.584;2023-11-19T07:37:57;11.90;99.90
67769;DHT22;54569;52.018;5.584;2023-11-19T07:40:23;11.90;99.90
67769;DHT22;54569;52.018;5.584;2023-11-19T07:42:49;11.90;99.90
67769;DHT22;54569;52.018;5.584;2023-11-19T07:45:15;11.90;99.90
67769;DHT22;54569;52.018;5.584;2023-11-19T07:47:42;11.90;99.90
67769;DHT22;54569;52.018;5.584;2023-11-19T07:50:10;12.00;99.90
67769;DHT22;54569;52.018;5.584;2023-11-19T07:52:37;12.00;99.90
67769;DHT22;54569;52.018;5.584;2023-11-19T07:55:02;12.00;99.90
67769;DHT22;54569;52.018;5.584;2023-11-19T07:57:28;12.10;99.90
67769;DHT22;54569;52.018;5.584;2023-11-19T07:59:57;12.10;99.90
67769;DHT22;54569;52.018;5.584;2023-11-19T08:02:22;12.20;99.90
67769;DHT22;54569;52.018;5.584;2023-11-19T08:04:49;12.30;99.90
67769;DHT22;54569;52.018;5.584;2023-11-19T08:07:21;12.30;99.90
67769;DHT22;54569;52.018;5.584;2023-11-19T08:09:46;12.40;99.90
67769;DHT22;54569;52.018;5.584;2023-11-19T08:12:12;12.50;99.90
67769;DHT22;54569;52.018;5.584;2023-11-19T08:14:40;12.50;99.90
67769;DHT22;54569;52.018;5.584;2023-11-19T08:17:05;12.50;99.90
67769;DHT22;54569;52.018;5.584;2023-11-19T08:19:32;12.50;99.90
67769;DHT22;54569;52.018;5.584;2023-11-19T08:21:57;12.50;99.90
67769;DHT22;54569;52.018;5.584;2023-11-19T08:24:23;12.50;99.90
67769;DHT22;54569;52.018;5.584;2023-11-19T08:26:49;12.50;99.90
67769;DHT22;54569;52.018;5.584;2023-11-19T08:29:14;12.40;99.90
67769;DHT22;54569;52.018;5.584;2023-11-19T08:31:40;12.40;99.90
67769;DHT22;54569;52.018;5.584;2023-11-19T08:34:06;12.50;99.90
67769;DHT22;54569;52.018;5.584;2023-11-19T08:36:35;13.00;99.90
67769;DHT22;54569;52.018;5.584;2023-11-19T08:39:01;13.60;99.90
67769;DHT22;54569;52.018;5.584;2023-11-19T08:41:26;13.80;99.90
67769;DHT22;54569;52.018;5.584;2023-11-19T08:43:52;13.80;99.90
67769;DHT22;54569;52.018;5.584;2023-11-19T08:46:18;13.60;99.90
67769;DHT22;54569;52.018;5.584;2023-11-19T08:48:44;13.50;99.90
67769;DHT22;54569;52.018;5.584;2023-11-19T08:51:09;13.40;99.90
67769;DHT22;54569;52.018;5.584;2023-11-19T08:53:35;13.50;99.90
67769;DHT22;54569;52.018;5.584;2023-11-19T08:56:01;13.90;99.90
67769;DHT22;54569;52.018;5.584;2023-11-19T08:58:28;13.90;99.90
67769;DHT22;54569;52.018;5.584;2023-11-19T09:00:54;13.70;99.90
67769;DHT22;54569;52.018;5.584;2023-11-19T09:03:20;13.80;99.90
67769;DHT22;54569;52.018;5.584;2023-11-19T09:05:46;14.60;99.90
67769;DHT22;54569;52.018;5.584;2023-11-19T09:08:12;15.60;99.90
67769;DHT22;54569;52.018;5.584;2023-11-19T09:10:37;16.20;99.70
67769;DHT22;54569;52.018;5.584;2023-11-19T09:13:03;16.60;97.90
67769;DHT22;54569;52.018;5.584;2023-11-19T09:15:29;16.80;95.80
67769;DHT22;54569;52.018;5.584;2023-11-19T09:17:55;16.50;95.10
67769;DHT22;54569;52.018;5.584;2023-11-19T09:20:21;16.10;95.90
67769;DHT22;54569;52.018;5.584;2023-11-19T09:22:47;15.70;96.90
67769;DHT22;54569;52.018;5.584;2023-11-19T09:25:13;15.50;98.00
67769;DHT22;54569;52.018;5.584;2023-11-19T09:27:45;15.50;99.40
67769;DHT22;54569;52.018;5.584;2023-11-19T09:30:11;16.30;99.70
67769;DHT22;54569;52.018;5.584;2023-11-19T09:32:37;17.30;96.70
67769;DHT22;54569;52.018;5.584;2023-11-19T09:35:03;17.70;92.70
67769;DHT22;54569;52.018;5.584;2023-11-19T09:37:29;17.00;92.70
67769;DHT22;54569;52.018;5.584;2023-11-19T09:39:55;16.30;94.00
67769;DHT22;54569;52.018;5.584;2023-11-19T09:42:20;15.60;95.60
67769;DHT22;54569;52.018;5.584;2023-11-19T09:44:47;15.10;97.30
67769;DHT22;54569;52.018;5.584;2023-11-19T09:47:14;14.90;99.20
67769;DHT22;54569;52.018;5.584;2023-11-19T09:49:40;14.80;99.90
67769;DHT22;54569;52.018;5.584;2023-11-19T09:52:06;14.80;99.90
67769;DHT22;54569;52.018;5.584;2023-11-19T09:54:32;15.10;99.90
67769;DHT22;54569;52.018;5.584;2023-11-19T09:56:58;15.60;98.60
67769;DHT22;54569;52.018;5.584;2023-11-19T09:59:29;15.60;97.50
67769;DHT22;54569;52.018;5.584;2023-11-19T10:01:56;15.50;97.70
67769;DHT22;54569;52.018;5.584;2023-11-19T10:04:22;15.60;97.30
67769;DHT22;54569;52.018;5.584;2023-11-19T10:06:50;15.60;96.50
67769;DHT22;54569;52.018;5.584;2023-11-19T10:09:16;15.40;96.60
67769;DHT22;54569;52.018;5.584;2023-11-19T10:11:42;15.00;97.00
67769;DHT22;54569;52.018;5.584;2023-11-19T10:14:09;14.80;98.10
67769;DHT22;54569;52.018;5.584;2023-11-19T10:16:35;14.60;98.50
67769;DHT22;54569;52.018;5.584;2023-11-19T10:19:01;14.50;98.90
67769;DHT22;54569;52.018;5.584;2023-11-19T10:21:28;14.30;99.40
67769;DHT22;54569;52.018;5.584;2023-11-19T10:23:56;14.20;99.90
67769;DHT22;54569;52.018;5.584;2023-11-19T10:26:26;14.30;99.90
67769;DHT22;54569;52.018;5.584;2023-11-19T10:28:52;15.30;99.90
67769;DHT22;54569;52.018;5.584;2023-11-19T10:31:19;16.30;97.30
67769;DHT22;54569;52.018;5.584;2023-11-19T10:33:50;17.50;94.20
67769;DHT22;54569;52.018;5.584;2023-11-19T10:36:16;19.00;91.50
67769;DHT22;54569;52.018;5.584;2023-11-19T10:38:54;20.30;84.80
67769;DHT22;54569;52.018;5.584;2023-11-19T10:41:31;21.20;78.50
67769;DHT22;54569;52.018;5.584;2023-11-19T10:43:58;21.60;76.30
67769;DHT22;54569;52.018;5.584;2023-11-19T10:46:42;21.80;76.50
67769;DHT22;54569;52.018;5.584;2023-11-19T10:49:09;22.30;73.40
67769;DHT22;54569;52.018;5.584;2023-11-19T10:51:35;22.90;72.80
67769;DHT22;54569;52.018;5.584;2023-11-19T10:54:03;23.30;71.10
67769;DHT22;54569;52.018;5.584;2023-11-19T10:56:32;23.30;69.80
67769;DHT22;54569;52.018;5.584;2023-11-19T10:58:59;21.90;71.70
67769;DHT22;54569;52.018;5.584;2023-11-19T11:01:31;20.60;75.50
67769;DHT22;54569;52.018;5.584;2023-11-19T11:03:59;19.90;78.00
67769;DHT22;54569;52.018;5.584;2023-11-19T11:06:29;19.60;79.80
67769;DHT22;54569;52.018;5.584;2023-11-19T11:08:55;19.30;80.60
67769;DHT22;54569;52.018;5.584;2023-11-19T11:11:21;19.20;81.70
67769;DHT22;54569;52.018;5.584;2023-11-19T11:13:50;19.00;82.00
67769;DHT22;54569;52.018;5.584;2023-11-19T11:16:18;18.80;81.90
67769;DHT22;54569;52.018;5.584;2023-11-19T11:18:48;18.40;83.00
67769;DHT22;54569;52.018;5.584;2023-11-19T11:21:17;18.00;84.90
67769;DHT22;54569;52.018;5.584;2023-11-19T11:24:21;17.80;85.60
67769;DHT22;54569;52.018;5.584;2023-11-19T11:27:08;17.30;82.50
67769;DHT22;54569;52.018;5.584;2023-11-19T11:30:05;16.70;79.80
67769;DHT22;54569;52.018;5.584;2023-11-19T11:38:07;15.80;91.90
67769;DHT22;54569;52.018;5.584;2023-11-19T11:40:34;15.50;86.40
67769;DHT22;54569;52.018;5.584;2023-11-19T11:43:02;15.30;92.60
67769;DHT22;54569;52.018;5.584;2023-11-19T11:45:40;15.10;93.20
67769;DHT22;54569;52.018;5.584;2023-11-19T11:48:10;15.10;93.20
67769;DHT22;54569;52.018;5.584;2023-11-19T11:50:47;15.10;93.60
67769;DHT22;54569;52.018;5.584;2023-11-19T11:53:17;15.00;93.10
67769;DHT22;54569;52.018;5.584;2023-11-19T11:58:40;14.80;93.80
67769;DHT22;54569;52.018;5.584;2023-11-19T12:01:05;14.60;94.00
67769;DHT22;54569;52.018;5.584;2023-11-19T12:03:33;14.60;94.10
67769;DHT22;54569;52.018;5.584;2023-11-19T12:05:59;14.50;94.30
67769;DHT22;54569;52.018;5.584;2023-11-19T12:08:27;14.50;94.40
67769;DHT22;54569;52.018;5.584;2023-11-19T12:10:55;14.40;94.40
67769;DHT22;54569;52.018;5.584;2023-11-19T12:13:24;14.50;94.60
67769;DHT22;54569;52.018;5.584;2023-11-19T12:18:31;14.70;93.50
67769;DHT22;54569;52.018;5.584;2023-11-19T12:20:58;14.80;93.60
67769;DHT22;54569;52.018;5.584;2023-11-19T12:23:30;15.00;93.00
67769;DHT22;54569;52.018;5.584;2023-11-19T12:25:59;15.00;92.90
67769;DHT22;54569;52.018;5.584;2023-11-19T12:28:25;14.90;92.80
67769;DHT22;54569;52.018;5.584;2023-11-19T12:30:54;15.00;93.10
67769;DHT22;54569;52.018;5.584;2023-11-19T12:33:32;15.10;92.80
67769;DHT22;54569;52.018;5.584;2023-11-19T12:35:58;15.00;92.60
67769;DHT22;54569;52.018;5.584;2023-11-19T12:38:25;15.00;92.60
67769;DHT22;54569;52.018;5.584;2023-11-19T12:41:08;14.90;92.70
67769;DHT22;54569;52.018;5.584;2023-11-19T12:43:34;14.90;92.50
67769;DHT22;54569;52.018;5.584;2023-11-19T12:46:01;14.90;92.70
67769;DHT22;54569;52.018;5.584;2023-11-19T12:48:27;14.90;92.90
67769;DHT22;54569;52.018;5.584;2023-11-19T12:50:57;15.00;92.80
67769;DHT22;54569;52.018;5.584;2023-11-19T12:53:25;15.00;92.60
67769;DHT22;54569;52.018;5.584;2023-11-19T12:55:52;15.00;92.40
67769;DHT22;54569;52.018;5.584;2023-11-19T12:58:34;15.10;92.50
67769;DHT22;54569;52.018;5.584;2023-11-19T13:01:06;15.10;91.80
67769;DHT22;54569;52.018;5.584;2023-11-19T13:03:36;15.00;92.40
67769;DHT22;54569;52.018;5.584;2023-11-19T13:06:07;15.00;92.40
67769;DHT22;54569;52.018;5.584;2023-11-19T13:08:41;15.00;92.50
67769;DHT22;54569;52.018;5.584;2023-11-19T13:11:07;15.00;92.00
67769;DHT22;54569;52.018;5.584;2023-11-19T13:16:18;14.80;92.50
67769;DHT22;54569;52.018;5.584;2023-11-19T13:18:44;14.70;92.70
67769;DHT22;54569;52.018;5.584;2023-11-19T13:21:10;14.70;92.80
67769;DHT22;54569;52.018;5.584;2023-11-19T13:23:36;14.60;93.30
67769;DHT22;54569;52.018;5.584;2023-11-19T13:26:01;14.50;93.20
67769;DHT22;54569;52.018;5.584;2023-11-19T13:28:29;14.40;93.60
67769;DHT22;54569;52.018;5.584;2023-11-19T13:30:55;14.40;93.80
67769;DHT22;54569;52.018;5.584;2023-11-19T13:33:20;14.40;93.80
67769;DHT22;54569;52.018;5.584;2023-11-19T13:35:46;14.30;94.00
67769;DHT22;54569;52.018;5.584;2023-11-19T13:38:12;14.30;94.00
67769;DHT22;54569;52.018;5.584;2023-11-19T13:40:38;14.30;94.20
67769;DHT22;54569;52.018;5.584;2023-11-19T13:43:04;14.30;94.30
67769;DHT22;54569;52.018;5.584;2023-11-19T13:45:30;14.30;94.40
67769;DHT22;54569;52.018;5.584;2023-11-19T13:47:56;14.20;94.60
67769;DHT22;54569;52.018;5.584;2023-11-19T13:50:22;14.10;94.90
67769;DHT22;54569;52.018;5.584;2023-11-19T13:52:48;14.10;95.10
67769;DHT22;54569;52.018;5.584;2023-11-19T13:55:14;14.10;95.50
67769;DHT22;54569;52.018;5.584;2023-11-19T13:57:41;14.00;95.70
67769;DHT22;54569;52.018;5.584;2023-11-19T14:00:08;14.00;96.10
67769;DHT22;54569;52.018;5.584;2023-11-19T14:02:46;14.00;96.50
67769;DHT22;54569;52.018;5.584;2023-11-19T14:05:13;14.00;96.40
67769;DHT22;54569;52.018;5.584;2023-11-19T14:07:39;13.90;96.70
67769;DHT22;54569;52.018;5.584;2023-11-19T14:10:06;13.90;96.90
67769;DHT22;54569;52.018;5.584;2023-11-19T14:12:32;13.90;97.10
67769;DHT22;54569;52.018;5.584;2023-11-19T14:14:58;13.90;97.20
67769;DHT22;54569;52.018;5.584;2023-11-19T14:17:25;13.90;97.20
67769;DHT22;54569;52.018;5.584;2023-11-19T14:19:51;14.00;97.00
67769;DHT22;54569;52.018;5.584;2023-11-19T14:22:17;14.00;97.00
67769;DHT22;54569;52.018;5.584;2023-11-19T14:24:45;14.00;97.00
67769;DHT22;54569;52.018;5.584;2023-11-19T14:27:11;13.90;96.90
67769;DHT22;54569;52.018;5.584;2023-11-19T14:29:37;13.90;97.00
67769;DHT22;54569;52.018;5.584;2023-11-19T14:32:03;13.80;97.00
67769;DHT22;54569;52.018;5.584;2023-11-19T14:34:30;13.70;96.90
67769;DHT22;54569;52.018;5.584;2023-11-19T14:36:56;13.60;97.00
67769;DHT22;54569;52.018;5.584;2023-11-19T14:39:22;13.60;97.20
67769;DHT22;54569;52.018;5.584;2023-11-19T14:41:48;13.50;97.40
67769;DHT22;54569;52.018;5.584;2023-11-19T14:44:15;13.50;97.50
67769;DHT22;54569;52.018;5.584;2023-11-19T14:46:40;13.40;98.00
67769;DHT22;54569;52.018;5.584;2023-11-19T14:49:06;13.40;97.90
67769;DHT22;54569;52.018;5.584;2023-11-19T14:51:37;13.30;98.00
67769;DHT22;54569;52.018;5.584;2023-11-19T14:54:04;13.30;98.20
67769;DHT22;54569;52.018;5.584;2023-11-19T14:56:30;13.30;98.30
67769;DHT22;54569;52.018;5.584;2023-11-19T14:58:56;13.20;98.30
67769;DHT22;54569;52.018;5.584;2023-11-19T15:01:21;13.20;98.30
67769;DHT22;54569;52.018;5.584;2023-11-19T15:03:47;13.20;98.50
67769;DHT22;54569;52.018;5.584;2023-11-19T15:06:13;13.20;98.50
67769;DHT22;54569;52.018;5.584;2023-11-19T15:08:39;13.20;98.50
67769;DHT22;54569;52.018;5.584;2023-11-19T15:11:05;13.20;98.50
67769;DHT22;54569;52.018;5.584;2023-11-19T15:13:32;13.20;98.70
67769;DHT22;54569;52.018;5.584;2023-11-19T15:15:59;13.20;98.40
67769;DHT22;54569;52.018;5.584;2023-11-19T15:18:24;13.20;98.40
67769;DHT22;54569;52.018;5.584;2023-11-19T15:20:53;13.20;98.30
67769;DHT22;54569;52.018;5.584;2023-11-19T15:23:20;13.20;98.30
67769;DHT22;54569;52.018;5.584;2023-11-19T15:25:45;13.20;98.20
67769;DHT22;54569;52.018;5.584;2023-11-19T15:28:11;13.20;98.20
67769;DHT22;54569;52.018;5.584;2023-11-19T15:30:37;13.20;98.20
67769;DHT22;54569;52.018;5.584;2023-11-19T15:33:03;13.20;98.30
67769;DHT22;54569;52.018;5.584;2023-11-19T15:35:28;13.20;98.40
67769;DHT22;54569;52.018;5.584;2023-11-19T15:37:54;13.20;98.40
67769;DHT22;54569;52.018;5.584;2023-11-19T15:40:21;13.20;98.40
67769;DHT22;54569;52.018;5.584;2023-11-19T15:42:47;13.20;98.50
67769;DHT22;54569;52.018;5.584;2023-11-19T15:45:13;13.20;98.50
67769;DHT22;54569;52.018;5.584;2023-11-19T15:47:39;13.20;98.60